createdAt,value
2023-05-06T00:02:03.661Z,101130.72
2023-05-06T00:04:29.992Z,101129.91
2023-05-06T00:06:56.347Z,101135.09
2023-05-06T00:09:25.371Z,101124.31
2023-05-06T00:11:51.775Z,101124.31
2023-05-06T00:14:18.176Z,101125.13
2023-05-06T00:16:44.516Z,101121.00
2023-05-06T00:19:10.881Z,101128.03
2023-05-06T00:21:37.637Z,101123.25
2023-05-06T00:24:04.116Z,101128.66
2023-05-06T00:26:30.742Z,101134.03
2023-05-06T00:28:57.233Z,101131.34
2023-05-06T00:31:23.823Z,101136.72
2023-05-06T00:33:50.286Z,101134.03
2023-05-06T00:36:16.634Z,101134.84
2023-05-06T00:38:42.929Z,101125.13
2023-05-06T00:41:09.399Z,101118.69
2023-05-06T00:43:36.038Z,101114.13
2023-05-06T00:46:02.657Z,101108.75
2023-05-06T00:48:29.055Z,101104.41
2023-05-06T00:50:55.388Z,101097.16
2023-05-06T00:53:22.130Z,101101.50
2023-05-06T00:55:48.593Z,101096.13
2023-05-06T00:58:14.929Z,101091.53
2023-05-06T01:00:41.337Z,101084.53
2023-05-06T01:03:08.564Z,101090.75
2023-05-06T01:05:35.523Z,101099.63
2023-05-06T01:08:03.046Z,101086.38
2023-05-06T01:10:29.681Z,101074.81
2023-05-06T01:12:56.209Z,101073.19
2023-05-06T01:15:22.544Z,101072.34
2023-05-06T01:17:50.672Z,101068.38
2023-05-06T01:20:18.422Z,101059.72
2023-05-06T01:22:44.872Z,101063.00
2023-05-06T01:25:20.851Z,101058.44
2023-05-06T01:27:47.551Z,101055.13
2023-05-06T01:30:14.731Z,101046.84
2023-05-06T01:32:41.209Z,101041.44
2023-05-06T01:35:07.722Z,101049.75
2023-05-06T01:37:34.472Z,101040.88
2023-05-06T01:40:01.246Z,101048.13
2023-05-06T01:42:27.645Z,101034.66
2023-05-06T01:44:54.350Z,101045.19
2023-05-06T01:47:23.876Z,101025.75
2023-05-06T01:49:50.740Z,101026.59
2023-05-06T01:52:17.368Z,101023.88
2023-05-06T01:54:43.866Z,101029.06
2023-05-06T01:57:10.352Z,101033.59
2023-05-06T01:59:36.744Z,101027.63
2023-05-06T02:02:03.180Z,101029.84
2023-05-06T02:04:29.985Z,101037.13
2023-05-06T02:06:56.496Z,101043.56
2023-05-06T02:09:22.917Z,101054.34
2023-05-06T02:11:49.300Z,101051.63
2023-05-06T02:14:15.822Z,101058.88
2023-05-06T02:16:42.286Z,101058.66
2023-05-06T02:19:10.030Z,101052.22
2023-05-06T02:21:36.674Z,101047.66
2023-05-06T02:24:03.118Z,101049.53
2023-05-06T02:26:29.449Z,101048.94
2023-05-06T02:28:56.155Z,101047.66
2023-05-06T02:31:22.628Z,101040.88
2023-05-06T02:33:49.189Z,101044.38
2023-05-06T02:36:15.608Z,101045.19
2023-05-06T02:38:44.962Z,101037.13
2023-05-06T02:41:11.322Z,101035.25
2023-05-06T02:43:39.486Z,101029.84
2023-05-06T02:46:06.020Z,101019.34
2023-05-06T02:48:36.117Z,101029.06
2023-05-06T02:51:02.907Z,101029.06
2023-05-06T02:53:29.748Z,101021.19
2023-05-06T02:55:56.123Z,101014.75
2023-05-06T02:58:22.677Z,101012.91
2023-05-06T03:00:49.104Z,101012.06
2023-05-06T03:03:15.546Z,101011.50
2023-05-06T03:05:42.156Z,101011.25
2023-05-06T03:08:08.477Z,101006.31
2023-05-06T03:10:35.588Z,100996.41
2023-05-06T03:13:02.330Z,100997.19
2023-05-06T03:15:28.820Z,101010.44
2023-05-06T03:17:55.479Z,101006.91
2023-05-06T03:20:22.011Z,101005.88
2023-05-06T03:22:48.456Z,100992.41
2023-05-06T03:25:15.072Z,100998.81
2023-05-06T03:27:41.545Z,101000.50
2023-05-06T03:30:08.272Z,101008.78
2023-05-06T03:32:34.683Z,101000.72
2023-05-06T03:35:01.150Z,100992.66
2023-05-06T03:37:27.559Z,100990.75
2023-05-06T03:39:54.489Z,100983.50
2023-05-06T03:42:21.166Z,100995.13
2023-05-06T03:44:47.532Z,100986.44
2023-05-06T03:47:14.054Z,100981.88
2023-05-06T03:49:40.349Z,100983.50
2023-05-06T03:52:06.994Z,100976.50
2023-05-06T03:54:33.762Z,100988.06
2023-05-06T03:57:00.367Z,100991.00
2023-05-06T03:59:26.737Z,100992.66
2023-05-06T04:01:53.167Z,100988.06
2023-05-06T04:04:19.639Z,100990.75
2023-05-06T04:06:46.184Z,100994.50
2023-05-06T04:09:12.574Z,101003.63
2023-05-06T04:11:39.281Z,101011.09
2023-05-06T04:14:05.851Z,101012.53
2023-05-06T04:16:32.240Z,101016.03
2023-05-06T04:18:58.764Z,101027.63
2023-05-06T04:21:25.313Z,101019.78
2023-05-06T04:23:51.734Z,101014.41
2023-05-06T04:26:18.322Z,101020.00
2023-05-06T04:28:45.109Z,101018.94
2023-05-06T04:31:11.559Z,101017.09
2023-05-06T04:33:37.951Z,101003.63
2023-05-06T04:36:04.338Z,100999.31
2023-05-06T04:38:30.737Z,101006.31
2023-05-06T04:40:57.147Z,101009.25
2023-05-06T04:43:23.805Z,101011.72
2023-05-06T04:45:50.503Z,101010.88
2023-05-06T04:48:17.004Z,101010.06
2023-05-06T04:50:43.698Z,101016.47
2023-05-06T04:53:10.125Z,101013.78
2023-05-06T04:55:36.693Z,101009.25
2023-05-06T04:58:04.331Z,101010.06
2023-05-06T05:00:30.669Z,101024.56
2023-05-06T05:02:57.640Z,101033.47
2023-05-06T05:05:24.375Z,101037.22
2023-05-06T05:07:50.880Z,101037.22
2023-05-06T05:10:17.422Z,101031.59
2023-05-06T05:12:44.357Z,101033.47
2023-05-06T05:15:11.211Z,101030.78
2023-05-06T05:17:38.051Z,101027.25
2023-05-06T05:20:04.572Z,101029.94
2023-05-06T05:22:31.000Z,101020.00
2023-05-06T05:24:57.433Z,101026.44
2023-05-06T05:27:26.970Z,101015.69
2023-05-06T05:29:53.358Z,101011.09
2023-05-06T05:32:19.765Z,101007.38
2023-05-06T05:34:46.807Z,101011.94
2023-05-06T05:37:13.571Z,101012.75
2023-05-06T05:39:39.962Z,101011.94
2023-05-06T05:42:06.542Z,101012.16
2023-05-06T05:44:33.033Z,101011.09
2023-05-06T05:46:59.484Z,101013.78
2023-05-06T05:49:25.833Z,101011.34
2023-05-06T05:51:52.233Z,101009.47
2023-05-06T05:54:18.729Z,101010.28
2023-05-06T05:56:48.352Z,101013.00
2023-05-06T05:59:14.726Z,100998.69
2023-05-06T06:01:41.181Z,101006.56
2023-05-06T06:04:07.961Z,101002.44
2023-05-06T06:06:34.624Z,101000.81
2023-05-06T06:09:01.074Z,101004.06
2023-05-06T06:11:27.498Z,100999.53
2023-05-06T06:13:53.892Z,101000.59
2023-05-06T06:16:20.436Z,101014.03
2023-05-06T06:18:47.094Z,101021.28
2023-05-06T06:21:13.609Z,101027.50
2023-05-06T06:23:40.391Z,101025.03
2023-05-06T06:26:07.111Z,101021.28
2023-05-06T06:28:33.567Z,101023.97
2023-05-06T06:30:59.935Z,101022.34
2023-05-06T06:33:26.454Z,101029.56
2023-05-06T06:35:53.121Z,101027.72
2023-05-06T06:38:19.753Z,101028.31
2023-05-06T06:40:46.721Z,101026.66
2023-05-06T06:43:13.050Z,101026.66
2023-05-06T06:45:39.804Z,101023.13
2023-05-06T06:48:06.211Z,101025.03
2023-05-06T06:50:33.119Z,101027.72
2023-05-06T06:52:59.936Z,101026.88
2023-05-06T06:55:26.262Z,101024.19
2023-05-06T06:57:52.761Z,101026.09
2023-05-06T07:00:19.200Z,101025.25
2023-05-06T07:02:45.624Z,101035.19
2023-05-06T07:05:12.404Z,101022.56
2023-05-06T07:07:39.742Z,101029.00
2023-05-06T07:10:06.479Z,101021.72
2023-05-06T07:12:33.186Z,101033.75
2023-05-06T07:14:59.650Z,101026.53
2023-05-06T07:17:26.692Z,101023.22
2023-05-06T07:19:53.273Z,101022.19
2023-05-06T07:22:19.694Z,101029.22
2023-05-06T07:24:48.385Z,101032.13
2023-05-06T07:27:14.763Z,101031.06
2023-05-06T07:29:41.799Z,101036.69
2023-05-06T07:32:08.483Z,101034.81
2023-05-06T07:34:35.327Z,101039.97
2023-05-06T07:37:01.654Z,101039.38
2023-05-06T07:39:28.235Z,101047.22
2023-05-06T07:41:54.688Z,101049.09
2023-05-06T07:44:22.038Z,101049.09
2023-05-06T07:46:48.951Z,101044.75
2023-05-06T07:49:15.396Z,101052.81
2023-05-06T07:51:42.034Z,101060.69
2023-05-06T07:54:08.491Z,101056.56
2023-05-06T07:56:35.176Z,101061.72
2023-05-06T07:59:01.527Z,101061.72
2023-05-06T08:01:27.915Z,101069.81
2023-05-06T08:03:54.866Z,101069.81
2023-05-06T08:06:21.307Z,101066.28
2023-05-06T08:08:47.679Z,101075.19
2023-05-06T08:11:14.228Z,101070.03
2023-05-06T08:13:43.667Z,101070.25
2023-05-06T08:16:10.057Z,101073.56
2023-05-06T08:18:36.888Z,101075.19
2023-05-06T08:21:03.334Z,101067.34
2023-05-06T08:23:29.903Z,101073.56
2023-05-06T08:25:56.281Z,101077.25
2023-05-06T08:28:24.594Z,101077.25
2023-05-06T08:30:51.565Z,101083.47
2023-05-06T08:33:17.956Z,101085.13
2023-05-06T08:35:44.338Z,101083.47
2023-05-06T08:38:10.997Z,101083.47
2023-05-06T08:40:42.449Z,101083.47
2023-05-06T08:43:08.839Z,101087.22
2023-05-06T08:45:35.228Z,101091.56
2023-05-06T08:48:01.867Z,101090.97
2023-05-06T08:50:28.284Z,101093.41
2023-05-06T08:52:54.653Z,101090.69
2023-05-06T08:55:21.143Z,101092.38
2023-05-06T08:57:47.739Z,101098.22
2023-05-06T09:00:14.195Z,101094.69
2023-05-06T09:02:43.058Z,101101.13
2023-05-06T09:05:10.218Z,101100.31
2023-05-06T09:07:40.712Z,101098.44
2023-05-06T09:10:07.054Z,101102.16
2023-05-06T09:12:34.761Z,101103.00
2023-05-06T09:15:01.556Z,101093.88
2023-05-06T09:17:28.609Z,101101.25
2023-05-06T09:19:55.355Z,101106.13
2023-05-06T09:22:22.061Z,101108.59
2023-05-06T09:24:48.475Z,101112.94
2023-05-06T09:27:15.300Z,101119.94
2023-05-06T09:29:41.655Z,101129.66
2023-05-06T09:32:08.107Z,101121.84
2023-05-06T09:34:34.473Z,101123.69
2023-05-06T09:37:02.848Z,101126.16
2023-05-06T09:39:29.250Z,101127.81
2023-05-06T09:41:55.630Z,101140.22
2023-05-06T09:44:24.049Z,101132.59
2023-05-06T09:46:50.450Z,101142.31
2023-05-06T09:49:16.820Z,101152.03
2023-05-06T09:51:43.451Z,101146.66
2023-05-06T09:54:10.754Z,101155.78
2023-05-06T09:56:37.197Z,101160.94
2023-05-06T09:59:03.709Z,101150.38
2023-05-06T10:01:36.871Z,101144.16
2023-05-06T10:04:04.246Z,101161.94
2023-05-06T10:06:30.914Z,101164.66
2023-05-06T10:08:57.398Z,101159.25
2023-05-06T10:11:23.796Z,101163.00
2023-05-06T10:13:50.236Z,101163.84
2023-05-06T10:16:16.609Z,101161.38
2023-05-06T10:18:43.404Z,101155.97
2023-05-06T10:21:09.935Z,101164.06
2023-05-06T10:23:36.368Z,101161.38
2023-05-06T10:26:02.739Z,101166.75
2023-05-06T10:28:31.549Z,101161.38
2023-05-06T10:30:58.432Z,101163.00
2023-05-06T10:33:25.506Z,101169.44
2023-05-06T10:35:53.722Z,101158.47
2023-05-06T10:38:20.431Z,101160.53
2023-05-06T10:40:46.961Z,101154.34
2023-05-06T10:43:13.291Z,101148.75
2023-05-06T10:45:40.015Z,101150.59
2023-05-06T10:48:06.625Z,101153.50
2023-05-06T10:50:33.860Z,101143.59
2023-05-06T10:53:00.425Z,101147.06
2023-05-06T10:55:26.825Z,101141.69
2023-05-06T10:57:53.212Z,101134.47
2023-05-06T11:00:19.720Z,101144.59
2023-05-06T11:02:47.563Z,101141.91
2023-05-06T11:05:14.107Z,101151.66
2023-05-06T11:07:40.407Z,101159.50
2023-05-06T11:10:06.848Z,101160.75
2023-05-06T11:12:37.414Z,101158.06
2023-05-06T11:15:03.787Z,101161.00
2023-05-06T11:17:30.372Z,101165.91
2023-05-06T11:19:57.109Z,101168.03
2023-05-06T11:22:23.559Z,101176.69
2023-05-06T11:24:50.110Z,101186.63
2023-05-06T11:27:16.917Z,101184.97
2023-05-06T11:29:43.496Z,101185.81
2023-05-06T11:32:09.990Z,101188.72
2023-05-06T11:34:36.592Z,101191.19
2023-05-06T11:37:09.567Z,101194.09
2023-05-06T11:39:40.489Z,101189.53
2023-05-06T11:42:07.976Z,101187.06
2023-05-06T11:44:34.393Z,101190.34
2023-05-06T11:47:00.918Z,101198.19
2023-05-06T11:49:27.663Z,101195.72
2023-05-06T11:51:54.481Z,101205.69
2023-05-06T11:54:20.837Z,101212.72
2023-05-06T11:56:47.450Z,101210.03
2023-05-06T11:59:13.929Z,101213.75
2023-05-06T12:01:41.045Z,101222.41
2023-05-06T12:04:07.986Z,101218.31
2023-05-06T12:06:34.631Z,101233.41
2023-05-06T12:09:00.994Z,101241.25
2023-05-06T12:11:27.314Z,101241.72
2023-05-06T12:13:53.861Z,101245.22
2023-05-06T12:16:20.432Z,101241.94
2023-05-06T12:18:46.962Z,101248.13
2023-05-06T12:21:13.972Z,101250.59
2023-05-06T12:23:40.307Z,101258.06
2023-05-06T12:26:07.294Z,101262.41
2023-05-06T12:28:33.644Z,101259.50
2023-05-06T12:31:00.395Z,101277.94
2023-05-06T12:33:28.305Z,101271.53
2023-05-06T12:35:54.700Z,101274.81
2023-05-06T12:38:21.811Z,101278.56
2023-05-06T12:40:48.344Z,101274.44
2023-05-06T12:43:14.826Z,101289.31
2023-05-06T12:45:41.454Z,101283.56
2023-05-06T12:48:08.106Z,101284.16
2023-05-06T12:50:34.721Z,101285.19
2023-05-06T12:53:01.273Z,101287.06
2023-05-06T12:55:27.766Z,101286.25
2023-05-06T12:57:55.210Z,101289.75
2023-05-06T13:00:23.252Z,101298.44
2023-05-06T13:02:50.020Z,101293.06
2023-05-06T13:05:16.710Z,101297.38
2023-05-06T13:07:43.154Z,101295.13
2023-05-06T13:10:10.393Z,101296.19
2023-05-06T13:12:37.100Z,101302.16
2023-05-06T13:15:03.568Z,101298.03
2023-05-06T13:17:30.051Z,101309.19
2023-05-06T13:19:56.634Z,101303.19
2023-05-06T13:22:25.650Z,101303.00
2023-05-06T13:24:52.161Z,101308.56
2023-05-06T13:27:18.510Z,101303.00
2023-05-06T13:29:44.840Z,101309.63
2023-05-06T13:32:11.523Z,101306.72
2023-05-06T13:34:38.190Z,101306.09
2023-05-06T13:37:04.476Z,101310.69
2023-05-06T13:39:31.111Z,101317.28
2023-05-06T13:41:57.456Z,101314.19
2023-05-06T13:44:23.862Z,101316.28
2023-05-06T13:46:50.485Z,101318.75
2023-05-06T13:49:17.390Z,101312.53
2023-05-06T13:51:43.888Z,101322.25
2023-05-06T13:54:10.800Z,101322.03
2023-05-06T13:56:37.497Z,101315.00
2023-05-06T13:59:04.203Z,101329.50
2023-05-06T14:01:30.737Z,101327.63
2023-05-06T14:03:57.420Z,101333.25
2023-05-06T14:06:23.766Z,101332.19
2023-05-06T14:08:50.396Z,101333.00
2023-05-06T14:11:17.007Z,101333.25
2023-05-06T14:13:43.532Z,101338.19
2023-05-06T14:16:09.881Z,101335.69
2023-05-06T14:18:36.411Z,101328.69
2023-05-06T14:21:02.735Z,101329.50
2023-05-06T14:23:30.537Z,101332.41
2023-05-06T14:25:57.120Z,101337.59
2023-05-06T14:28:23.390Z,101336.97
2023-05-06T14:30:49.872Z,101343.19
2023-05-06T14:33:16.446Z,101340.50
2023-05-06T14:35:42.977Z,101348.56
2023-05-06T14:38:09.551Z,101346.69
2023-05-06T14:40:36.095Z,101351.03
2023-05-06T14:43:02.485Z,101352.69
2023-05-06T14:45:28.836Z,101351.03
2023-05-06T14:47:55.455Z,101346.47
2023-05-06T14:50:22.130Z,101349.41
2023-05-06T14:52:48.647Z,101342.97
2023-05-06T14:55:15.687Z,101348.34
2023-05-06T14:57:42.112Z,101352.25
2023-05-06T15:00:08.872Z,101347.28
2023-05-06T15:02:35.338Z,101353.53
2023-05-06T15:05:03.888Z,101351.03
2023-05-06T15:07:30.466Z,101361.59
2023-05-06T15:09:56.824Z,101357.47
2023-05-06T15:12:23.181Z,101353.72
2023-05-06T15:14:50.507Z,101350.19
2023-05-06T15:17:16.911Z,101352.91
2023-05-06T15:19:43.723Z,101353.09
2023-05-06T15:22:10.732Z,101343.59
2023-05-06T15:24:37.138Z,101354.78
2023-05-06T15:27:03.590Z,101357.69
2023-05-06T15:29:29.898Z,101355.00
2023-05-06T15:31:56.476Z,101343.38
2023-05-06T15:34:23.030Z,101342.56
2023-05-06T15:36:49.687Z,101350.63
2023-05-06T15:39:16.100Z,101354.16
2023-05-06T15:41:45.030Z,101356.25
2023-05-06T15:44:11.453Z,101347.13
2023-05-06T15:46:38.015Z,101351.88
2023-05-06T15:51:34.520Z,101364.31
2023-05-06T15:54:01.473Z,101371.34
2023-05-06T15:56:28.100Z,101375.09
2023-05-06T15:58:55.020Z,101372.59
2023-05-06T16:01:31.539Z,101371.56
2023-05-06T16:04:08.531Z,101379.41
2023-05-06T16:06:35.323Z,101375.09
2023-05-06T16:09:02.000Z,101373.41
2023-05-06T16:11:28.414Z,101385.59
2023-05-06T16:13:54.864Z,101384.16
2023-05-06T16:16:21.667Z,101377.78
2023-05-06T16:18:48.289Z,101385.84
2023-05-06T16:21:15.009Z,101381.25
2023-05-06T16:23:41.320Z,101379.41
2023-05-06T16:26:07.620Z,101388.53
2023-05-06T16:28:34.042Z,101387.69
2023-05-06T16:31:01.121Z,101385.84
2023-05-06T16:33:27.500Z,101385.00
2023-05-06T16:35:53.911Z,101384.78
2023-05-06T16:38:20.313Z,101389.34
2023-05-06T16:40:46.699Z,101391.22
2023-05-06T16:43:13.125Z,101387.69
2023-05-06T16:45:41.510Z,101385.84
2023-05-06T16:48:08.074Z,101390.38
2023-05-06T16:50:35.060Z,101386.44
2023-05-06T16:53:01.373Z,101390.19
2023-05-06T16:55:27.810Z,101397.41
2023-05-06T16:57:54.277Z,101392.25
2023-05-06T17:00:20.895Z,101397.63
2023-05-06T17:02:47.277Z,101392.88
2023-05-06T17:05:13.709Z,101398.84
2023-05-06T17:07:40.313Z,101395.78
2023-05-06T17:10:06.662Z,101398.25
2023-05-06T17:12:33.103Z,101397.19
2023-05-06T17:14:59.551Z,101406.31
2023-05-06T17:17:25.975Z,101405.47
2023-05-06T17:19:52.711Z,101409.22
2023-05-06T17:22:19.146Z,101418.72
2023-05-06T17:24:49.079Z,101413.75
2023-05-06T17:27:15.751Z,101414.81
2023-05-06T17:29:42.210Z,101417.09
2023-05-06T17:32:08.966Z,101413.75
2023-05-06T17:34:35.649Z,101416.25
2023-05-06T17:37:02.061Z,101415.66
2023-05-06T17:39:28.806Z,101430.75
2023-05-06T17:41:55.390Z,101430.94
2023-05-06T17:44:21.815Z,101430.75
2023-05-06T17:46:48.545Z,101427.22
2023-05-06T17:49:15.672Z,101432.00
2023-05-06T17:51:42.522Z,101428.47
2023-05-06T17:54:08.965Z,101434.47
2023-05-06T17:56:35.234Z,101429.09
2023-05-06T17:59:02.055Z,101428.25
2023-05-06T18:01:28.484Z,101442.56
2023-05-06T18:03:55.044Z,101443.34
2023-05-06T18:06:21.509Z,101445.44
2023-05-06T18:08:47.898Z,101440.28
2023-05-06T18:11:14.568Z,101443.59
2023-05-06T18:13:40.919Z,101447.09
2023-05-06T18:16:07.776Z,101449.19
2023-05-06T18:18:34.345Z,101443.81
2023-05-06T18:21:01.046Z,101448.34
2023-05-06T18:23:27.404Z,101458.91
2023-05-06T18:25:53.868Z,101460.53
2023-05-06T18:28:20.737Z,101460.75
2023-05-06T18:30:47.427Z,101462.63
2023-05-06T18:33:13.909Z,101463.22
2023-05-06T18:35:40.581Z,101454.56
2023-05-06T18:38:06.904Z,101469.03
2023-05-06T18:40:33.331Z,101464.50
2023-05-06T18:43:00.149Z,101464.50
2023-05-06T18:45:26.564Z,101479.78
2023-05-06T18:47:53.305Z,101469.88
2023-05-06T18:50:19.905Z,101478.78
2023-05-06T18:52:46.566Z,101476.50
2023-05-06T18:55:13.162Z,101482.28
2023-05-06T18:57:39.826Z,101479.78
2023-05-06T19:00:06.437Z,101482.72
2023-05-06T19:02:33.223Z,101480.84
2023-05-06T19:05:03.719Z,101475.47
2023-05-06T19:07:30.117Z,101479.00
2023-05-06T19:09:56.766Z,101476.28
2023-05-06T19:12:23.324Z,101474.66
2023-05-06T19:14:49.671Z,101471.13
2023-05-06T19:17:16.316Z,101480.03
2023-05-06T19:19:42.836Z,101472.97
2023-05-06T19:22:09.218Z,101477.56
2023-05-06T19:24:35.668Z,101479.78
2023-05-06T19:27:02.193Z,101484.56
2023-05-06T19:29:28.514Z,101479.41
2023-05-06T19:31:54.874Z,101484.56
2023-05-06T19:34:21.246Z,101484.56
2023-05-06T19:36:47.680Z,101488.53
2023-05-06T19:39:14.174Z,101489.13
2023-05-06T19:41:40.673Z,101486.44
2023-05-06T19:44:07.194Z,101496.38
2023-05-06T19:46:33.542Z,101493.03
2023-05-06T19:48:59.969Z,101497.41
2023-05-06T19:51:26.507Z,101497.41
2023-05-06T19:53:53.058Z,101492.00
2023-05-06T19:56:19.626Z,101499.47
2023-05-06T19:58:46.029Z,101496.38
2023-05-06T20:01:13.071Z,101494.91
2023-05-06T20:03:39.578Z,101496.75
2023-05-06T20:06:06.211Z,101496.75
2023-05-06T20:08:32.786Z,101498.41
2023-05-06T20:11:01.200Z,101491.38
2023-05-06T20:13:28.099Z,101500.50
2023-05-06T20:15:54.979Z,101494.06
2023-05-06T20:18:21.781Z,101493.25
2023-05-06T20:20:48.323Z,101494.06
2023-05-06T20:23:14.730Z,101502.97
2023-05-06T20:25:41.088Z,101499.47
2023-05-06T20:28:07.428Z,101503.19
2023-05-06T20:30:33.911Z,101500.72
2023-05-06T20:33:00.971Z,101504.25
2023-05-06T20:35:27.479Z,101496.97
2023-05-06T20:37:53.876Z,101502.16
2023-05-06T20:40:20.466Z,101498.03
2023-05-06T20:42:47.115Z,101501.53
2023-05-06T20:45:13.618Z,101502.16
2023-05-06T20:47:40.138Z,101507.53
2023-05-06T20:50:06.653Z,101501.75
2023-05-06T20:52:33.441Z,101498.84
2023-05-06T20:54:59.839Z,101504.25
2023-05-06T20:57:26.236Z,101498.03
2023-05-06T20:59:52.777Z,101501.53
2023-05-06T21:02:19.588Z,101504.25
2023-05-06T21:04:46.338Z,101507.94
2023-05-06T21:07:12.813Z,101502.78
2023-05-06T21:09:39.285Z,101513.31
2023-05-06T21:12:08.305Z,101513.31
2023-05-06T21:14:34.712Z,101507.94
2023-05-06T21:17:01.317Z,101507.13
2023-05-06T21:19:28.399Z,101510.63
2023-05-06T21:21:54.794Z,101513.31
2023-05-06T21:24:21.165Z,101511.69
2023-05-06T21:26:47.584Z,101516.00
2023-05-06T21:29:13.923Z,101506.28
2023-05-06T21:31:50.146Z,101507.34
2023-05-06T21:34:19.513Z,101503.59
2023-05-06T21:36:45.818Z,101508.97
2023-05-06T21:39:12.516Z,101506.28
2023-05-06T21:41:39.496Z,101514.56
2023-05-06T21:44:06.033Z,101510.03
2023-05-06T21:46:32.725Z,101510.03
2023-05-06T21:48:59.386Z,101512.09
2023-05-06T21:51:25.861Z,101509.59
2023-05-06T21:53:52.207Z,101515.41
2023-05-06T21:56:20.538Z,101519.94
2023-05-06T21:58:46.932Z,101512.09
2023-05-06T22:01:13.381Z,101523.06
2023-05-06T22:03:42.341Z,101519.56
2023-05-06T22:06:08.900Z,101514.78
2023-05-06T22:08:35.329Z,101520.81
2023-05-06T22:11:06.628Z,101523.91
2023-05-06T22:13:34.579Z,101526.78
2023-05-06T22:16:02.882Z,101526.59
2023-05-06T22:18:29.904Z,101531.13
2023-05-06T22:20:56.396Z,101536.28
2023-05-06T22:23:22.796Z,101534.06
2023-05-06T22:25:49.475Z,101539.00
2023-05-06T22:28:16.026Z,101533.59
2023-05-06T22:30:42.785Z,101537.34
2023-05-06T22:33:13.850Z,101533.59
2023-05-06T22:35:40.318Z,101531.34
2023-05-06T22:38:06.828Z,101532.16
2023-05-06T22:40:33.197Z,101536.94
2023-05-06T22:42:59.609Z,101542.72
2023-05-06T22:45:26.224Z,101540.88
2023-05-06T22:47:52.592Z,101536.09
2023-05-06T22:50:19.381Z,101537.34
2023-05-06T22:52:45.732Z,101528.03
2023-05-06T22:55:12.663Z,101532.59
2023-05-06T22:57:39.424Z,101532.59
2023-05-06T23:00:06.032Z,101529.09
2023-05-06T23:02:32.507Z,101531.56
2023-05-06T23:04:59.175Z,101526.59
2023-05-06T23:07:25.554Z,101526.41
2023-05-06T23:09:52.193Z,101530.31
2023-05-06T23:12:18.874Z,101537.53
2023-05-06T23:14:45.305Z,101535.50
2023-05-06T23:17:11.974Z,101546.06
2023-05-06T23:19:38.882Z,101550.38
2023-05-06T23:22:05.319Z,101541.69
2023-05-06T23:24:36.354Z,101542.13
2023-05-06T23:27:02.687Z,101544.38
2023-05-06T23:29:29.125Z,101543.56
2023-05-06T23:31:55.570Z,101554.34
2023-05-06T23:34:22.014Z,101551.00
2023-05-06T23:36:48.381Z,101557.03
2023-05-06T23:39:14.733Z,101549.16
2023-05-06T23:41:41.095Z,101553.50
2023-05-06T23:44:07.448Z,101545.44
2023-05-06T23:46:34.029Z,101549.56
2023-05-06T23:49:00.662Z,101551.00
2023-05-06T23:51:27.051Z,101552.06
2023-05-06T23:53:53.378Z,101552.44
2023-05-06T23:56:25.074Z,101551.84
2023-05-06T23:58:51.566Z,101552.25
